Private Wetterstation Sandau
Wetterdaten: Montag, 27.02.2012
Datum Zeit Temp. A. Feuchte A. Luftdruck Regen Wind Richtung Richtung Taupunkt Windchill
27.02.2012 00:02 0,6 C 67 % 1026,9 hPa 0,0 l/m 0,0 km/h (0 Bft) N-NW 337 -4,8 C 0,6 C
27.02.2012 00:07 0,7 C 67 % 1026,8 hPa 0,0 l/m 2,5 km/h (1 Bft) NW 315 -4,7 C 0,7 C
27.02.2012 00:12 0,7 C 67 % 1026,8 hPa 0,0 l/m 0,0 km/h (0 Bft) NW 315 -4,7 C 0,7 C
27.02.2012 00:17 0,8 C 67 % 1026,7 hPa 0,0 l/m 2,2 km/h (1 Bft) NW 315 -4,6 C 0,8 C
27.02.2012 00:22 0,7 C 67 % 1026,7 hPa 0,0 l/m 0,0 km/h (0 Bft) NW 315 -4,7 C 0,7 C
27.02.2012 00:27 0,7 C 67 % 1026,7 hPa 0,0 l/m 0,0 km/h (0 Bft) NW 315 -4,7 C 0,7 C
27.02.2012 00:32 0,7 C 67 % 1026,8 hPa 0,0 l/m 0,0 km/h (0 Bft) NW 315 -4,7 C 0,7 C
27.02.2012 00:37 0,8 C 68 % 1026,8 hPa 0,0 l/m 0,0 km/h (0 Bft) NW 315 -4,4 C 0,8 C
27.02.2012 00:42 0,8 C 68 % 1026,9 hPa 0,0 l/m 1,4 km/h (1 Bft) NW 315 -4,4 C 0,8 C
27.02.2012 00:47 0,8 C 68 % 1026,7 hPa 0,0 l/m 1,4 km/h (1 Bft) NW 315 -4,4 C 0,8 C
27.02.2012 00:52 0,8 C 68 % 1026,7 hPa 0,0 l/m 0,0 km/h (0 Bft) NW 315 -4,4 C 0,8 C
27.02.2012 00:57 0,8 C 69 % 1026,7 hPa 0,0 l/m 0,0 km/h (0 Bft) NW 315 -4,2 C 0,8 C
27.02.2012 01:02 0,7 C 69 % 1026,9 hPa 0,0 l/m 0,0 km/h (0 Bft) NW 315 -4,3 C 0,7 C
27.02.2012 01:07 0,6 C 70 % 1026,8 hPa 0,0 l/m 0,0 km/h (0 Bft) NW 315 -4,2 C 0,6 C
27.02.2012 01:12 0,6 C 70 % 1026,8 hPa 0,0 l/m 0,0 km/h (0 Bft) NW 315 -4,2 C 0,6 C
27.02.2012 01:17 0,6 C 70 % 1026,8 hPa 0,0 l/m 0,0 km/h (0 Bft) NW 315 -4,2 C 0,6 C
27.02.2012 01:22 0,5 C 70 % 1026,9 hPa 0,0 l/m 0,0 km/h (0 Bft) NW 315 -4,3 C 0,5 C
27.02.2012 01:27 0,4 C 71 % 1026,7 hPa 0,0 l/m 0,0 km/h (0 Bft) NW 315 -4,2 C 0,4 C
27.02.2012 01:32 0,4 C 71 % 1026,8 hPa 0,0 l/m 1,8 km/h (1 Bft) NW 315 -4,2 C 0,4 C
27.02.2012 01:37 0,4 C 71 % 1026,8 hPa 0,0 l/m 2,2 km/h (1 Bft) NW 315 -4,2 C 0,4 C
27.02.2012 01:42 0,4 C 72 % 1026,8 hPa 0,0 l/m 1,4 km/h (1 Bft) NW 315 -4,0 C 0,4 C
27.02.2012 01:47 0,4 C 72 % 1026,9 hPa 0,0 l/m 0,0 km/h (0 Bft) NW 315 -4,0 C 0,4 C
27.02.2012 01:52 0,4 C 72 % 1026,8 hPa 0,0 l/m 2,5 km/h (1 Bft) W 270 -4,0 C 0,4 C
27.02.2012 01:57 0,4 C 72 % 1026,9 hPa 0,0 l/m 1,4 km/h (1 Bft) W 270 -4,0 C 0,4 C
27.02.2012 02:02 0,4 C 72 % 1026,7 hPa 0,0 l/m 2,2 km/h (1 Bft) W 270 -4,0 C 0,4 C
27.02.2012 02:07 0,3 C 72 % 1026,9 hPa 0,0 l/m 1,1 km/h (1 Bft) W 270 -4,1 C 0,3 C
27.02.2012 02:12 0,3 C 72 % 1027,1 hPa 0,0 l/m 0,0 km/h (0 Bft) W 270 -4,1 C 0,3 C
27.02.2012 02:17 0,2 C 72 % 1026,9 hPa 0,0 l/m 0,0 km/h (0 Bft) W 270 -4,2 C 0,2 C
27.02.2012 02:22 0,2 C 72 % 1026,9 hPa 0,0 l/m 0,0 km/h (0 Bft) W 270 -4,2 C 0,2 C
27.02.2012 02:27 0,1 C 73 % 1026,9 hPa 0,0 l/m 0,0 km/h (0 Bft) W 270 -4,2 C 0,1 C
27.02.2012 02:32 0,1 C 73 % 1026,9 hPa 0,0 l/m 0,0 km/h (0 Bft) W 270 -4,2 C 0,1 C
27.02.2012 02:37 0,1 C 73 % 1027,0 hPa 0,0 l/m 0,0 km/h (0 Bft) W 270 -4,2 C 0,1 C
27.02.2012 02:42 0,1 C 73 % 1027,1 hPa 0,0 l/m 0,0 km/h (0 Bft) W 270 -4,2 C 0,1 C
27.02.2012 02:47 0,1 C 73 % 1026,8 hPa 0,0 l/m 0,0 km/h (0 Bft) W 270 -4,2 C 0,1 C
27.02.2012 02:52 0,1 C 74 % 1026,9 hPa 0,0 l/m 3,6 km/h (1 Bft) W 270 -4,0 C 0,1 C
27.02.2012 02:57 0,1 C 74 % 1026,9 hPa 0,0 l/m 1,8 km/h (1 Bft) W 270 -4,0 C 0,1 C
27.02.2012 03:02 -0,1 C 74 % 1026,8 hPa 0,0 l/m 1,8 km/h (1 Bft) W 270 -4,2 C -0,1 C
27.02.2012 03:07 -0,1 C 74 % 1026,9 hPa 0,0 l/m 2,5 km/h (1 Bft) W 270 -4,2 C -0,1 C
27.02.2012 03:12 -0,1 C 74 % 1026,8 hPa 0,0 l/m 2,5 km/h (1 Bft) W 270 -4,2 C -0,1 C
27.02.2012 03:17 -0,1 C 74 % 1026,9 hPa 0,0 l/m 2,5 km/h (1 Bft) W 270 -4,2 C -0,1 C
27.02.2012 03:22 -0,1 C 74 % 1026,7 hPa 0,0 l/m 0,0 km/h (0 Bft) W 270 -4,2 C -0,1 C
27.02.2012 03:27 -0,2 C 74 % 1026,7 hPa 0,0 l/m 0,0 km/h (0 Bft) W 270 -4,3 C -0,2 C
27.02.2012 03:32 -0,4 C 74 % 1026,6 hPa 0,0 l/m 1,1 km/h (1 Bft) W 270 -4,5 C -0,4 C
27.02.2012 03:37 -0,4 C 74 % 1026,6 hPa 0,0 l/m 2,2 km/h (1 Bft) W 270 -4,5 C -0,4 C
27.02.2012 03:42 -0,5 C 75 % 1026,5 hPa 0,0 l/m 1,8 km/h (1 Bft) W 270 -4,4 C -0,5 C
27.02.2012 03:47 -0,6 C 75 % 1026,5 hPa 0,0 l/m 0,0 km/h (0 Bft) W 270 -4,5 C -0,6 C
27.02.2012 03:52 -0,7 C 75 % 1026,6 hPa 0,0 l/m 2,2 km/h (1 Bft) W 270 -4,6 C -0,7 C
27.02.2012 03:57 -0,7 C 75 % 1026,4 hPa 0,0 l/m 1,4 km/h (1 Bft) W 270 -4,6 C -0,7 C
27.02.2012 04:02 -0,7 C 75 % 1026,4 hPa 0,0 l/m 1,4 km/h (1 Bft) W 270 -4,6 C -0,7 C
27.02.2012 04:07 -0,8 C 75 % 1026,5 hPa 0,0 l/m 0,0 km/h (0 Bft) W 270 -4,7 C -0,8 C
27.02.2012 04:12 -0,9 C 76 % 1026,4 hPa 0,0 l/m 1,4 km/h (1 Bft) W 270 -4,6 C -0,9 C
27.02.2012 04:17 -0,9 C 76 % 1026,6 hPa 0,0 l/m 2,2 km/h (1 Bft) W 270 -4,6 C -0,9 C
27.02.2012 04:22 -0,9 C 76 % 1026,5 hPa 0,0 l/m 0,0 km/h (0 Bft) W 270 -4,6 C -0,9 C
27.02.2012 04:27 -0,8 C 76 % 1026,6 hPa 0,0 l/m 2,2 km/h (1 Bft) W 270 -4,5 C -0,8 C
27.02.2012 04:32 -0,8 C 76 % 1026,5 hPa 0,0 l/m 0,0 km/h (0 Bft) W 270 -4,5 C -0,8 C
27.02.2012 04:37 -0,9 C 76 % 1026,5 hPa 0,0 l/m 1,8 km/h (1 Bft) W 270 -4,6 C -0,9 C
27.02.2012 04:42 -0,9 C 76 % 1026,4 hPa 0,0 l/m 0,0 km/h (0 Bft) W 270 -4,6 C -0,9 C
27.02.2012 04:47 -0,9 C 76 % 1026,3 hPa 0,0 l/m 4,3 km/h (1 Bft) SW 225 -4,6 C -0,9 C
27.02.2012 04:52 -0,9 C 76 % 1026,2 hPa 0,0 l/m 1,4 km/h (1 Bft) SW 225 -4,6 C -0,9 C
27.02.2012 04:57 -0,9 C 76 % 1026,1 hPa 0,0 l/m 2,5 km/h (1 Bft) SW 225 -4,6 C -0,9 C
27.02.2012 05:02 -0,8 C 77 % 1026,3 hPa 0,0 l/m 1,4 km/h (1 Bft) SW 225 -4,3 C -0,8 C
27.02.2012 05:07 -0,8 C 76 % 1026,3 hPa 0,0 l/m 1,1 km/h (1 Bft) SW 225 -4,5 C -0,8 C
27.02.2012 05:12 -0,9 C 77 % 1026,1 hPa 0,0 l/m 1,4 km/h (1 Bft) SW 225 -4,4 C -0,9 C
27.02.2012 05:17 -0,9 C 76 % 1026,0 hPa 0,0 l/m 0,0 km/h (0 Bft) SW 225 -4,6 C -0,9 C
27.02.2012 05:22 -1,0 C 76 % 1026,0 hPa 0,0 l/m 0,0 km/h (0 Bft) SW 225 -4,7 C -1,0 C
27.02.2012 05:27 -1,1 C 77 % 1026,1 hPa 0,0 l/m 0,0 km/h (0 Bft) SW 225 -4,6 C -1,1 C
27.02.2012 05:32 -1,1 C 77 % 1026,0 hPa 0,0 l/m 0,0 km/h (0 Bft) SW 225 -4,6 C -1,1 C
27.02.2012 05:37 -1,2 C 77 % 1025,9 hPa 0,0 l/m 2,2 km/h (1 Bft) SW 225 -4,7 C -1,2 C
27.02.2012 05:42 -1,2 C 77 % 1026,0 hPa 0,0 l/m 0,0 km/h (0 Bft) SW 225 -4,7 C -1,2 C
27.02.2012 05:47 -1,2 C 77 % 1025,7 hPa 0,0 l/m 1,4 km/h (1 Bft) SW 225 -4,7 C -1,2 C
27.02.2012 05:52 -1,2 C 78 % 1025,8 hPa 0,0 l/m 2,5 km/h (1 Bft) SW 225 -4,5 C -1,2 C
27.02.2012 05:57 -1,2 C 78 % 1025,8 hPa 0,0 l/m 0,0 km/h (0 Bft) SW 225 -4,5 C -1,2 C
27.02.2012 06:02 -1,3 C 78 % 1025,8 hPa 0,0 l/m 1,8 km/h (1 Bft) SW 225 -4,6 C -1,3 C
27.02.2012 06:07 -1,4 C 78 % 1025,7 hPa 0,0 l/m 1,4 km/h (1 Bft) SW 225 -4,7 C -1,4 C
27.02.2012 06:12 -1,4 C 78 % 1025,7 hPa 0,0 l/m 0,0 km/h (0 Bft) SW 225 -4,7 C -1,4 C
27.02.2012 06:17 -1,4 C 78 % 1025,8 hPa 0,0 l/m 0,0 km/h (0 Bft) SW 225 -4,7 C -1,4 C
27.02.2012 06:22 -1,5 C 78 % 1025,7 hPa 0,0 l/m 0,0 km/h (0 Bft) SW 225 -4,8 C -1,5 C
27.02.2012 06:27 -1,5 C 79 % 1025,8 hPa 0,0 l/m 1,4 km/h (1 Bft) SW 225 -4,7 C -1,5 C
27.02.2012 06:32 -1,5 C 79 % 1025,6 hPa 0,0 l/m 1,4 km/h (1 Bft) SW 225 -4,7 C -1,5 C
27.02.2012 06:37 -1,5 C 79 % 1025,7 hPa 0,0 l/m 2,2 km/h (1 Bft) S-SW 202 -4,7 C -1,5 C
27.02.2012 06:42 -1,5 C 79 % 1025,7 hPa 0,0 l/m 0,0 km/h (0 Bft) S-SW 202 -4,7 C -1,5 C
27.02.2012 06:47 -1,5 C 79 % 1025,6 hPa 0,0 l/m 2,2 km/h (1 Bft) S 180 -4,7 C -1,5 C
27.02.2012 06:52 -1,6 C 79 % 1025,8 hPa 0,0 l/m 4,0 km/h (1 Bft) S 180 -4,8 C -1,6 C
27.02.2012 06:57 -1,6 C 79 % 1025,6 hPa 0,0 l/m 2,2 km/h (1 Bft) S 180 -4,8 C -1,6 C
27.02.2012 07:02 -1,5 C 79 % 1025,6 hPa 0,0 l/m 1,1 km/h (1 Bft) S-SO 157 -4,7 C -1,5 C
27.02.2012 07:07 -1,5 C 80 % 1025,7 hPa 0,0 l/m 0,0 km/h (0 Bft) S-SO 157 -4,5 C -1,5 C
27.02.2012 07:12 -1,6 C 80 % 1025,9 hPa 0,0 l/m 0,0 km/h (0 Bft) S-SO 157 -4,6 C -1,6 C
27.02.2012 07:17 -1,6 C 80 % 1025,9 hPa 0,0 l/m 0,0 km/h (0 Bft) S 180 -4,6 C -1,6 C
27.02.2012 07:22 -1,6 C 80 % 1026,0 hPa 0,0 l/m 0,0 km/h (0 Bft) S 180 -4,6 C -1,6 C
27.02.2012 07:27 -1,6 C 80 % 1025,8 hPa 0,0 l/m 2,5 km/h (1 Bft) S-SO 157 -4,6 C -1,6 C
27.02.2012 07:32 -1,6 C 80 % 1025,8 hPa 0,0 l/m 4,0 km/h (1 Bft) S-SO 157 -4,6 C -1,6 C
27.02.2012 07:37 -1,6 C 80 % 1025,9 hPa 0,0 l/m 0,0 km/h (0 Bft) S-SO 157 -4,6 C -1,6 C
27.02.2012 07:42 -1,6 C 80 % 1026,1 hPa 0,0 l/m 0,0 km/h (0 Bft) S-SO 157 -4,6 C -1,6 C
27.02.2012 07:47 -1,6 C 80 % 1025,9 hPa 0,0 l/m 0,0 km/h (0 Bft) S-SO 157 -4,6 C -1,6 C
27.02.2012 07:52 -1,5 C 80 % 1025,9 hPa 0,0 l/m 1,8 km/h (1 Bft) S-SO 157 -4,5 C -1,5 C
27.02.2012 07:57 -1,4 C 80 % 1025,9 hPa 0,0 l/m 0,0 km/h (0 Bft) S-SO 157 -4,4 C -1,4 C
27.02.2012 08:02 -1,2 C 80 % 1025,8 hPa 0,0 l/m 1,8 km/h (1 Bft) S-SO 157 -4,2 C -1,2 C
27.02.2012 08:07 -1,1 C 81 % 1025,8 hPa 0,0 l/m 0,0 km/h (0 Bft) SW 225 -3,9 C -1,1 C
27.02.2012 08:12 -1,0 C 81 % 1025,9 hPa 0,0 l/m 2,5 km/h (1 Bft) W-SW 247 -3,8 C -1,0 C
27.02.2012 08:17 -0,8 C 81 % 1025,9 hPa 0,0 l/m 3,6 km/h (1 Bft) W-SW 247 -3,6 C -0,8 C
27.02.2012 08:22 -0,7 C 81 % 1025,8 hPa 0,0 l/m 5,8 km/h (2 Bft) W-SW 247 -3,5 C -2,7 C
27.02.2012 08:27 -0,4 C 81 % 1026,0 hPa 0,0 l/m 4,7 km/h (1 Bft) S 180 -3,3 C -1,9 C
27.02.2012 08:32 -0,4 C 81 % 1025,9 hPa 0,0 l/m 3,6 km/h (1 Bft) W-SW 247 -3,3 C -0,4 C
27.02.2012 08:37 -0,1 C 81 % 1025,9 hPa 0,0 l/m 5,0 km/h (1 Bft) W-NW 292 -3,0 C -1,7 C
27.02.2012 08:42 -0,1 C 82 % 1026,1 hPa 0,0 l/m 7,9 km/h (2 Bft) W 270 -2,8 C -2,8 C
27.02.2012 08:47 0,1 C 82 % 1026,1 hPa 0,0 l/m 9,0 km/h (2 Bft) W-SW 247 -2,6 C -2,9 C
27.02.2012 08:52 0,2 C 82 % 1026,2 hPa 0,0 l/m 6,5 km/h (2 Bft) W 270 -2,5 C -2,0 C
27.02.2012 08:57 0,2 C 83 % 1026,1 hPa 0,0 l/m 4,7 km/h (1 Bft) W 270 -2,3 C -1,2 C
27.02.2012 09:02 0,3 C 83 % 1026,1 hPa 0,0 l/m 4,7 km/h (1 Bft) W-NW 292 -2,2 C -1,1 C
27.02.2012 09:07 0,3 C 83 % 1026,0 hPa 0,0 l/m 4,0 km/h (1 Bft) W-NW 292 -2,2 C 0,3 C
27.02.2012 09:12 0,4 C 83 % 1026,0 hPa 0,0 l/m 8,3 km/h (2 Bft) W-SW 247 -2,1 C -2,4 C
27.02.2012 09:17 0,4 C 84 % 1026,0 hPa 0,0 l/m 9,0 km/h (2 Bft) W-NW 292 -2,0 C -2,6 C
27.02.2012 09:22 0,5 C 84 % 1025,9 hPa 0,0 l/m 6,5 km/h (2 Bft) W-NW 292 -1,9 C -1,6 C
27.02.2012 09:27 0,6 C 84 % 1026,1 hPa 0,0 l/m 3,2 km/h (1 Bft) NW 315 -1,8 C 0,6 C
27.02.2012 09:32 0,7 C 84 % 1026,0 hPa 0,0 l/m 9,7 km/h (2 Bft) W-NW 292 -1,7 C -2,4 C
27.02.2012 09:37 0,8 C 84 % 1025,8 hPa 0,0 l/m 3,6 km/h (1 Bft) W-NW 292 -1,6 C 0,8 C
27.02.2012 09:42 0,8 C 84 % 1025,8 hPa 0,0 l/m 4,0 km/h (1 Bft) W-NW 292 -1,6 C 0,8 C
27.02.2012 09:47 0,8 C 84 % 1025,8 hPa 0,0 l/m 5,0 km/h (1 Bft) W-SW 247 -1,6 C -0,7 C
27.02.2012 09:52 0,8 C 84 % 1025,8 hPa 0,0 l/m 6,1 km/h (2 Bft) W 270 -1,6 C -1,1 C
27.02.2012 09:57 0,7 C 84 % 1025,9 hPa 0,0 l/m 11,2 km/h (2 Bft) W-SW 247 -1,7 C -2,8 C
27.02.2012 10:02 0,7 C 85 % 1025,8 hPa 0,0 l/m 7,9 km/h (2 Bft) NW 315 -1,5 C -1,9 C
27.02.2012 10:07 0,8 C 85 % 1025,8 hPa 0,0 l/m 8,6 km/h (2 Bft) W-SW 247 -1,4 C -2,0 C
27.02.2012 10:12 0,8 C 85 % 1026,0 hPa 0,0 l/m 13,0 km/h (3 Bft) W-SW 247 -1,4 C -3,0 C
27.02.2012 10:17 0,9 C 85 % 1025,7 hPa 0,0 l/m 4,7 km/h (1 Bft) W 270 -1,3 C -0,4 C
27.02.2012 10:22 0,9 C 85 % 1025,8 hPa 0,0 l/m 10,4 km/h (2 Bft) W 270 -1,3 C -2,3 C
27.02.2012 10:27 0,8 C 85 % 1025,9 hPa 0,0 l/m 7,2 km/h (2 Bft) NW 315 -1,4 C -1,5 C
27.02.2012 10:32 0,8 C 85 % 1025,9 hPa 0,0 l/m 2,2 km/h (1 Bft) W 270 -1,4 C 0,8 C
27.02.2012 10:37 0,8 C 85 % 1025,8 hPa 0,0 l/m 4,0 km/h (1 Bft) W-NW 292 -1,4 C 0,8 C
27.02.2012 10:42 0,9 C 85 % 1025,7 hPa 0,0 l/m 5,0 km/h (1 Bft) W-NW 292 -1,3 C -0,6 C
27.02.2012 10:47 0,9 C 85 % 1025,9 hPa 0,0 l/m 4,7 km/h (1 Bft) SW 225 -1,3 C -0,4 C
27.02.2012 10:52 0,9 C 85 % 1026,0 hPa 0,0 l/m 11,2 km/h (2 Bft) W-SW 247 -1,3 C -2,5 C
27.02.2012 10:57 0,9 C 85 % 1025,7 hPa 0,0 l/m 4,0 km/h (1 Bft) W-NW 292 -1,3 C 0,9 C
27.02.2012 11:02 0,9 C 85 % 1025,6 hPa 0,0 l/m 7,2 km/h (2 Bft) SW 225 -1,3 C -1,4 C
27.02.2012 11:07 0,9 C 86 % 1025,5 hPa 0,0 l/m 6,1 km/h (2 Bft) W 270 -1,2 C -1,0 C
27.02.2012 11:12 1,1 C 86 % 1025,5 hPa 0,0 l/m 2,5 km/h (1 Bft) NW 315 -1,0 C 1,1 C
27.02.2012 11:17 1,3 C 85 % 1025,5 hPa 0,0 l/m 4,0 km/h (1 Bft) W 270 -0,9 C 1,3 C
27.02.2012 11:22 1,3 C 85 % 1025,5 hPa 0,0 l/m 4,3 km/h (1 Bft) W-SW 247 -0,9 C 1,3 C
27.02.2012 11:27 1,3 C 85 % 1025,3 hPa 0,0 l/m 1,1 km/h (1 Bft) W-SW 247 -0,9 C 1,3 C
27.02.2012 11:32 1,3 C 85 % 1025,4 hPa 0,0 l/m 1,8 km/h (1 Bft) W 270 -0,9 C 1,3 C
27.02.2012 11:37 1,3 C 85 % 1025,4 hPa 0,0 l/m 1,4 km/h (1 Bft) W-SW 247 -0,9 C 1,3 C
27.02.2012 11:42 1,3 C 85 % 1025,2 hPa 0,0 l/m 6,5 km/h (2 Bft) W 270 -0,9 C -0,7 C
27.02.2012 11:47 1,3 C 85 % 1025,1 hPa 0,0 l/m 1,8 km/h (1 Bft) W-SW 247 -0,9 C 1,3 C
27.02.2012 11:52 1,5 C 85 % 1025,2 hPa 0,0 l/m 2,5 km/h (1 Bft) SW 225 -0,7 C 1,5 C
27.02.2012 11:57 1,5 C 85 % 1025,0 hPa 0,0 l/m 1,8 km/h (1 Bft) W 270 -0,7 C 1,5 C
27.02.2012 12:02 1,6 C 84 % 1024,9 hPa 0,0 l/m 4,3 km/h (1 Bft) W-SW 247 -0,8 C 1,6 C
27.02.2012 12:07 1,8 C 84 % 1024,8 hPa 0,0 l/m 6,8 km/h (2 Bft) W 270 -0,6 C -0,2 C
27.02.2012 12:12 1,8 C 84 % 1025,0 hPa 0,0 l/m 13,7 km/h (3 Bft) W 270 -0,6 C -2,0 C
27.02.2012 12:17 1,8 C 84 % 1024,8 hPa 0,0 l/m 8,6 km/h (2 Bft) W 270 -0,6 C -0,8 C
27.02.2012 12:22 1,8 C 84 % 1024,6 hPa 0,0 l/m 6,5 km/h (2 Bft) S-SW 202 -0,6 C -0,1 C
27.02.2012 12:27 1,8 C 84 % 1024,7 hPa 0,0 l/m 10,4 km/h (2 Bft) W-SW 247 -0,6 C -1,3 C
27.02.2012 12:32 1,9 C 85 % 1024,5 hPa 0,0 l/m 4,3 km/h (1 Bft) W-SW 247 -0,3 C 1,9 C
27.02.2012 12:37 1,9 C 85 % 1024,6 hPa 0,0 l/m 5,8 km/h (2 Bft) SW 225 -0,3 C 0,2 C
27.02.2012 12:42 1,9 C 85 % 1024,7 hPa 0,0 l/m 5,8 km/h (2 Bft) W-SW 247 -0,3 C 0,2 C
27.02.2012 12:47 1,9 C 85 % 1024,7 hPa 0,0 l/m 5,0 km/h (1 Bft) W-NW 292 -0,3 C 0,6 C
27.02.2012 12:52 1,9 C 85 % 1024,7 hPa 0,0 l/m 5,0 km/h (1 Bft) W 270 -0,3 C 0,6 C
27.02.2012 12:57 1,9 C 85 % 1024,5 hPa 0,0 l/m 7,6 km/h (2 Bft) S-SW 202 -0,3 C -0,4 C
27.02.2012 13:02 1,9 C 85 % 1024,6 hPa 0,0 l/m 4,0 km/h (1 Bft) SW 225 -0,3 C 1,9 C
27.02.2012 13:07 1,9 C 85 % 1024,4 hPa 0,0 l/m 9,4 km/h (2 Bft) W-SW 247 -0,3 C -0,9 C
27.02.2012 13:12 1,9 C 85 % 1024,2 hPa 0,0 l/m 2,9 km/h (1 Bft) SW 225 -0,3 C 1,9 C
27.02.2012 13:17 2,1 C 86 % 1024,2 hPa 0,0 l/m 4,0 km/h (1 Bft) SW 225 0,0 C 2,1 C
27.02.2012 13:22 2,1 C 86 % 1023,8 hPa 0,0 l/m 7,6 km/h (2 Bft) S-SW 202 0,0 C -0,2 C
27.02.2012 13:27 2,1 C 86 % 1023,7 hPa 0,0 l/m 7,2 km/h (2 Bft) S 180 0,0 C -0,0 C
27.02.2012 13:32 2,2 C 86 % 1023,5 hPa 0,0 l/m 3,2 km/h (1 Bft) W-SW 247 0,1 C 2,2 C
27.02.2012 13:37 2,3 C 86 % 1023,3 hPa 0,0 l/m 4,0 km/h (1 Bft) W-SW 247 0,2 C 2,3 C
27.02.2012 13:42 2,3 C 86 % 1023,4 hPa 0,0 l/m 4,7 km/h (1 Bft) S-SW 202 0,2 C 1,2 C
27.02.2012 13:47 2,4 C 86 % 1023,5 hPa 0,0 l/m 4,0 km/h (1 Bft) S-SW 202 0,3 C 2,4 C
27.02.2012 13:52 2,5 C 86 % 1023,7 hPa 0,0 l/m 2,2 km/h (1 Bft) SW 225 0,4 C 2,5 C
27.02.2012 13:57 2,5 C 86 % 1023,7 hPa 0,0 l/m 5,8 km/h (2 Bft) W-SW 247 0,4 C 0,9 C
27.02.2012 14:02 2,6 C 86 % 1023,6 hPa 0,0 l/m 1,1 km/h (1 Bft) S-SW 202 0,5 C 2,6 C
27.02.2012 14:07 2,6 C 86 % 1023,4 hPa 0,0 l/m 3,2 km/h (1 Bft) S-SW 202 0,5 C 2,6 C
27.02.2012 14:12 2,6 C 86 % 1023,3 hPa 0,0 l/m 1,1 km/h (1 Bft) SW 225 0,5 C 2,6 C
27.02.2012 14:17 2,7 C 86 % 1023,4 hPa 0,0 l/m 5,0 km/h (1 Bft) SW 225 0,6 C 1,5 C
27.02.2012 14:22 2,7 C 86 % 1023,6 hPa 0,0 l/m 0,0 km/h (0 Bft) S-SW 202 0,6 C 2,7 C
27.02.2012 14:27 2,7 C 86 % 1023,5 hPa 0,0 l/m 3,2 km/h (1 Bft) W-SW 247 0,6 C 2,7 C
27.02.2012 14:32 2,8 C 86 % 1023,3 hPa 0,0 l/m 2,9 km/h (1 Bft) SW 225 0,7 C 2,8 C
27.02.2012 14:37 2,8 C 86 % 1023,2 hPa 0,0 l/m 3,6 km/h (1 Bft) SW 225 0,7 C 2,8 C
27.02.2012 14:42 2,9 C 86 % 1023,1 hPa 0,0 l/m 6,5 km/h (2 Bft) SW 225 0,8 C 1,1 C
27.02.2012 14:47 2,9 C 86 % 1023,0 hPa 0,0 l/m 1,8 km/h (1 Bft) S 180 0,8 C 2,9 C
27.02.2012 14:52 2,9 C 86 % 1023,2 hPa 0,5 l/m 2,2 km/h (1 Bft) S-SO 157 0,8 C 2,9 C
27.02.2012 14:57 2,9 C 87 % 1023,0 hPa 0,0 l/m 2,9 km/h (1 Bft) S 180 1,0 C 2,9 C
27.02.2012 15:02 2,9 C 87 % 1022,6 hPa 0,0 l/m 1,8 km/h (1 Bft) S 180 1,0 C 2,9 C
27.02.2012 15:07 3,0 C 87 % 1022,6 hPa 0,0 l/m 7,9 km/h (2 Bft) SW 225 1,1 C 0,8 C
27.02.2012 15:12 3,1 C 87 % 1022,5 hPa 0,0 l/m 2,5 km/h (1 Bft) S-SO 157 1,2 C 3,1 C
27.02.2012 15:17 3,1 C 87 % 1022,4 hPa 0,0 l/m 3,6 km/h (1 Bft) S 180 1,2 C 3,1 C
27.02.2012 15:22 3,1 C 87 % 1022,2 hPa 0,0 l/m 2,5 km/h (1 Bft) SO 135 1,2 C 3,1 C
27.02.2012 15:27 3,1 C 87 % 1022,2 hPa 0,0 l/m 0,0 km/h (0 Bft) S-SO 157 1,2 C 3,1 C
27.02.2012 15:32 3,1 C 87 % 1022,1 hPa 0,0 l/m 0,0 km/h (0 Bft) S 180 1,2 C 3,1 C
27.02.2012 15:37 3,1 C 87 % 1022,0 hPa 0,0 l/m 4,3 km/h (1 Bft) S-SO 157 1,2 C 3,1 C
27.02.2012 15:42 3,1 C 87 % 1022,1 hPa 0,5 l/m 5,0 km/h (1 Bft) S-SO 157 1,2 C 1,9 C
27.02.2012 15:47 3,1 C 87 % 1022,1 hPa 0,0 l/m 2,5 km/h (1 Bft) S-SO 157 1,2 C 3,1 C
27.02.2012 15:52 3,1 C 87 % 1022,0 hPa 0,0 l/m 4,7 km/h (1 Bft) S-SO 157 1,2 C 2,1 C
27.02.2012 15:57 3,1 C 87 % 1022,0 hPa 0,0 l/m 3,2 km/h (1 Bft) S-SO 157 1,2 C 3,1 C
27.02.2012 16:02 3,1 C 87 % 1021,8 hPa 0,0 l/m 2,2 km/h (1 Bft) S-SO 157 1,2 C 3,1 C
27.02.2012 16:07 3,1 C 87 % 1021,9 hPa 0,0 l/m 3,2 km/h (1 Bft) S-SO 157 1,2 C 3,1 C
27.02.2012 16:12 3,1 C 88 % 1022,0 hPa 0,0 l/m 4,0 km/h (1 Bft) S 180 1,3 C 3,1 C
27.02.2012 16:17 3,1 C 88 % 1021,9 hPa 0,0 l/m 7,6 km/h (2 Bft) S-SO 157 1,3 C 1,0 C
27.02.2012 16:22 3,1 C 88 % 1021,8 hPa 0,0 l/m 0,0 km/h (0 Bft) S-SO 157 1,3 C 3,1 C
27.02.2012 16:27 3,1 C 88 % 1021,8 hPa 0,0 l/m 2,9 km/h (1 Bft) S-SO 157 1,3 C 3,1 C
27.02.2012 16:32 3,1 C 88 % 1021,8 hPa 0,0 l/m 0,0 km/h (0 Bft) S-SO 157 1,3 C 3,1 C
27.02.2012 16:37 3,1 C 88 % 1021,8 hPa 0,0 l/m 4,0 km/h (1 Bft) S-SO 157 1,3 C 3,1 C
27.02.2012 16:42 3,1 C 88 % 1021,8 hPa 1,0 l/m 2,5 km/h (1 Bft) S-SO 157 1,3 C 3,1 C
27.02.2012 16:47 3,1 C 88 % 1021,8 hPa 0,0 l/m 5,0 km/h (1 Bft) S-SW 202 1,3 C 1,9 C
27.02.2012 16:52 3,1 C 88 % 1021,7 hPa 0,0 l/m 4,0 km/h (1 Bft) S-SW 202 1,3 C 3,1 C
27.02.2012 16:57 3,2 C 88 % 1021,5 hPa 0,5 l/m 6,1 km/h (2 Bft) S-SW 202 1,4 C 1,6 C
27.02.2012 17:02 3,3 C 89 % 1021,4 hPa 0,0 l/m 6,5 km/h (2 Bft) S-SO 157 1,7 C 1,6 C
27.02.2012 17:07 3,3 C 89 % 1021,3 hPa 0,0 l/m 6,1 km/h (2 Bft) S 180 1,7 C 1,7 C
27.02.2012 17:12 3,3 C 89 % 1021,1 hPa 0,0 l/m 2,5 km/h (1 Bft) S-SW 202 1,7 C 3,3 C
27.02.2012 17:17 3,3 C 89 % 1021,1 hPa 0,0 l/m 5,8 km/h (2 Bft) S 180 1,7 C 1,8 C
27.02.2012 17:22 3,4 C 89 % 1021,3 hPa 0,0 l/m 4,7 km/h (1 Bft) S-SW 202 1,8 C 2,4 C
27.02.2012 17:27 3,4 C 89 % 1021,3 hPa 0,0 l/m 5,0 km/h (1 Bft) S-SW 202 1,8 C 2,3 C
27.02.2012 17:32 3,4 C 89 % 1021,4 hPa 0,0 l/m 4,0 km/h (1 Bft) W-SW 247 1,8 C 3,4 C
27.02.2012 17:37 3,5 C 89 % 1021,4 hPa 0,0 l/m 4,0 km/h (1 Bft) S-SW 202 1,9 C 3,5 C
27.02.2012 17:42 3,5 C 89 % 1021,4 hPa 0,0 l/m 4,3 km/h (1 Bft) S-SW 202 1,9 C 3,5 C
27.02.2012 17:47 3,5 C 89 % 1021,3 hPa 0,0 l/m 2,5 km/h (1 Bft) W-SW 247 1,9 C 3,5 C
27.02.2012 17:52 3,6 C 90 % 1021,3 hPa 0,0 l/m 2,2 km/h (1 Bft) S 180 2,1 C 3,6 C
27.02.2012 17:57 3,6 C 90 % 1021,5 hPa 0,0 l/m 4,7 km/h (1 Bft) S-SW 202 2,1 C 2,6 C
27.02.2012 18:02 3,6 C 90 % 1021,1 hPa 0,0 l/m 4,0 km/h (1 Bft) SW 225 2,1 C 3,6 C
27.02.2012 18:07 3,6 C 90 % 1021,2 hPa 0,0 l/m 1,8 km/h (1 Bft) S-SW 202 2,1 C 3,6 C
27.02.2012 18:12 3,6 C 90 % 1021,1 hPa 0,0 l/m 2,9 km/h (1 Bft) S-SW 202 2,1 C 3,6 C
27.02.2012 18:17 3,6 C 90 % 1021,2 hPa 0,0 l/m 3,2 km/h (1 Bft) S-SW 202 2,1 C 3,6 C
27.02.2012 18:22 3,6 C 90 % 1021,0 hPa 0,0 l/m 5,0 km/h (1 Bft) SW 225 2,1 C 2,5 C
27.02.2012 18:27 3,6 C 90 % 1020,8 hPa 0,0 l/m 1,1 km/h (1 Bft) W-SW 247 2,1 C 3,6 C
27.02.2012 18:32 3,7 C 90 % 1021,0 hPa 0,0 l/m 1,8 km/h (1 Bft) SW 225 2,2 C 3,7 C
27.02.2012 18:37 3,8 C 90 % 1021,0 hPa 0,0 l/m 2,5 km/h (1 Bft) S-SW 202 2,3 C 3,8 C
27.02.2012 18:42 3,8 C 90 % 1021,0 hPa 0,0 l/m 2,5 km/h (1 Bft) S-SW 202 2,3 C 3,8 C
27.02.2012 18:47 3,8 C 90 % 1020,9 hPa 0,0 l/m 3,2 km/h (1 Bft) SW 225 2,3 C 3,8 C
27.02.2012 18:52 3,8 C 91 % 1020,9 hPa 0,0 l/m 2,5 km/h (1 Bft) W-SW 247 2,5 C 3,8 C
27.02.2012 18:57 3,8 C 91 % 1021,0 hPa 0,0 l/m 3,6 km/h (1 Bft) W-SW 247 2,5 C 3,8 C
27.02.2012 19:02 3,8 C 91 % 1021,0 hPa 0,0 l/m 7,2 km/h (2 Bft) W-SW 247 2,5 C 2,0 C
27.02.2012 19:07 3,9 C 91 % 1021,0 hPa 0,0 l/m 7,2 km/h (2 Bft) W-SW 247 2,6 C 2,1 C
27.02.2012 19:12 3,9 C 91 % 1021,1 hPa 0,0 l/m 5,4 km/h (1 Bft) SW 225 2,6 C 2,7 C
27.02.2012 19:17 3,9 C 91 % 1021,0 hPa 0,0 l/m 7,6 km/h (2 Bft) SW 225 2,6 C 2,0 C
27.02.2012 19:22 3,9 C 91 % 1021,2 hPa 0,0 l/m 10,1 km/h (2 Bft) W-SW 247 2,6 C 1,3 C
27.02.2012 19:27 4,0 C 91 % 1021,1 hPa 0,0 l/m 8,3 km/h (2 Bft) W-SW 247 2,7 C 1,9 C
27.02.2012 19:32 4,1 C 91 % 1021,0 hPa 0,0 l/m 5,0 km/h (1 Bft) W-SW 247 2,8 C 3,1 C
27.02.2012 19:37 4,1 C 91 % 1020,9 hPa 0,0 l/m 7,6 km/h (2 Bft) W-SW 247 2,8 C 2,2 C
27.02.2012 19:42 4,1 C 91 % 1020,9 hPa 0,0 l/m 6,8 km/h (2 Bft) W-SW 247 2,8 C 2,4 C
27.02.2012 19:47 4,1 C 91 % 1020,9 hPa 0,0 l/m 5,8 km/h (2 Bft) SW 225 2,8 C 2,8 C
27.02.2012 19:52 4,1 C 91 % 1021,1 hPa 0,0 l/m 8,6 km/h (2 Bft) W-SW 247 2,8 C 1,9 C
27.02.2012 19:57 4,2 C 91 % 1020,9 hPa 0,0 l/m 10,8 km/h (2 Bft) SW 225 2,9 C 1,5 C
27.02.2012 20:02 4,2 C 91 % 1020,9 hPa 0,0 l/m 8,6 km/h (2 Bft) W 270 2,9 C 2,0 C
27.02.2012 20:07 4,3 C 91 % 1021,0 hPa 0,0 l/m 8,3 km/h (2 Bft) W-SW 247 3,0 C 2,2 C
27.02.2012 20:12 4,3 C 91 % 1021,0 hPa 0,0 l/m 7,6 km/h (2 Bft) W-SW 247 3,0 C 2,4 C
27.02.2012 20:17 4,4 C 91 % 1021,1 hPa 0,0 l/m 10,4 km/h (2 Bft) W-SW 247 3,1 C 1,9 C
27.02.2012 20:22 4,4 C 91 % 1021,1 hPa 0,0 l/m 8,3 km/h (2 Bft) W-SW 247 3,1 C 2,4 C
27.02.2012 20:27 4,4 C 91 % 1021,0 hPa 0,0 l/m 9,0 km/h (2 Bft) W 270 3,1 C 2,2 C
27.02.2012 20:32 4,4 C 91 % 1021,0 hPa 0,0 l/m 5,0 km/h (1 Bft) W-SW 247 3,1 C 3,4 C
27.02.2012 20:37 4,5 C 91 % 1021,0 hPa 0,0 l/m 9,4 km/h (2 Bft) W 270 3,2 C 2,2 C
27.02.2012 20:42 4,5 C 91 % 1020,9 hPa 0,0 l/m 9,0 km/h (2 Bft) SW 225 3,2 C 2,3 C
27.02.2012 20:47 4,6 C 91 % 1020,9 hPa 0,0 l/m 6,8 km/h (2 Bft) W-SW 247 3,3 C 3,0 C
27.02.2012 20:52 4,6 C 91 % 1020,9 hPa 0,0 l/m 14,4 km/h (3 Bft) W-SW 247 3,3 C 1,4 C
27.02.2012 20:57 4,6 C 91 % 1020,8 hPa 0,0 l/m 7,6 km/h (2 Bft) W 270 3,3 C 2,8 C
27.02.2012 21:02 4,7 C 91 % 1020,9 hPa 0,0 l/m 10,4 km/h (2 Bft) W-SW 247 3,4 C 2,2 C
27.02.2012 21:07 4,7 C 91 % 1020,8 hPa 0,0 l/m 16,6 km/h (3 Bft) W-SW 247 3,4 C 1,1 C
27.02.2012 21:12 4,8 C 91 % 1020,8 hPa 0,0 l/m 10,1 km/h (2 Bft) W-SW 247 3,5 C 2,4 C
27.02.2012 21:17 4,8 C 91 % 1020,8 hPa 0,0 l/m 9,0 km/h (2 Bft) W-SW 247 3,5 C 2,6 C
27.02.2012 21:22 4,8 C 91 % 1020,9 hPa 0,0 l/m 7,2 km/h (2 Bft) W 270 3,5 C 3,1 C
27.02.2012 21:27 4,8 C 91 % 1020,8 hPa 0,0 l/m 12,2 km/h (2 Bft) W-SW 247 3,5 C 2,0 C
27.02.2012 21:32 4,8 C 91 % 1020,7 hPa 0,0 l/m 6,8 km/h (2 Bft) W 270 3,5 C 3,2 C
27.02.2012 21:37 4,9 C 91 % 1020,8 hPa 0,0 l/m 10,4 km/h (2 Bft) W-SW 247 3,6 C 2,5 C
27.02.2012 21:42 4,9 C 91 % 1020,7 hPa 0,0 l/m 14,8 km/h (3 Bft) W-SW 247 3,6 C 1,7 C
27.02.2012 21:47 4,9 C 91 % 1020,7 hPa 0,0 l/m 6,8 km/h (2 Bft) W 270 3,6 C 3,4 C
27.02.2012 21:52 4,9 C 91 % 1020,5 hPa 0,0 l/m 13,0 km/h (3 Bft) W-SW 247 3,6 C 2,0 C
27.02.2012 21:57 4,9 C 91 % 1020,4 hPa 0,0 l/m 6,1 km/h (2 Bft) W-SW 247 3,6 C 3,6 C
27.02.2012 22:02 5,0 C 91 % 1020,4 hPa 0,0 l/m 9,4 km/h (2 Bft) W 270 3,7 C 2,8 C
27.02.2012 22:07 5,0 C 91 % 1020,4 hPa 0,0 l/m 9,7 km/h (2 Bft) W 270 3,7 C 2,7 C
27.02.2012 22:12 5,1 C 91 % 1020,1 hPa 0,0 l/m 15,5 km/h (3 Bft) W 270 3,8 C 1,8 C
27.02.2012 22:17 5,1 C 91 % 1020,3 hPa 0,0 l/m 4,7 km/h (1 Bft) W-SW 247 3,8 C 4,3 C
27.02.2012 22:22 5,1 C 91 % 1020,3 hPa 0,0 l/m 9,4 km/h (2 Bft) W-SW 247 3,8 C 2,9 C
27.02.2012 22:27 5,1 C 91 % 1020,2 hPa 0,0 l/m 8,6 km/h (2 Bft) W-SW 247 3,8 C 3,1 C
27.02.2012 22:32 5,1 C 91 % 1020,3 hPa 0,0 l/m 5,4 km/h (1 Bft) W-SW 247 3,8 C 4,0 C
27.02.2012 22:37 5,1 C 91 % 1020,4 hPa 0,0 l/m 5,8 km/h (2 Bft) W 270 3,8 C 3,9 C
27.02.2012 22:42 5,2 C 91 % 1020,4 hPa 0,0 l/m 9,4 km/h (2 Bft) W-SW 247 3,9 C 3,0 C
27.02.2012 22:47 5,2 C 91 % 1020,6 hPa 0,0 l/m 4,7 km/h (1 Bft) W-SW 247 3,9 C 4,4 C
27.02.2012 22:52 5,2 C 91 % 1020,5 hPa 0,0 l/m 4,3 km/h (1 Bft) W 270 3,9 C 5,2 C
27.02.2012 22:57 5,2 C 91 % 1020,5 hPa 0,0 l/m 5,8 km/h (2 Bft) W-SW 247 3,9 C 4,0 C
27.02.2012 23:02 5,3 C 91 % 1020,4 hPa 0,0 l/m 8,3 km/h (2 Bft) W 270 4,0 C 3,4 C
27.02.2012 23:07 5,3 C 91 % 1020,5 hPa 0,0 l/m 4,7 km/h (1 Bft) W-NW 292 4,0 C 4,5 C
27.02.2012 23:12 5,3 C 91 % 1020,5 hPa 0,0 l/m 3,2 km/h (1 Bft) W 270 4,0 C 5,3 C
27.02.2012 23:17 5,3 C 91 % 1020,7 hPa 0,0 l/m 4,3 km/h (1 Bft) W 270 4,0 C 5,3 C
27.02.2012 23:22 5,3 C 91 % 1020,5 hPa 0,5 l/m 3,2 km/h (1 Bft) W 270 4,0 C 5,3 C
27.02.2012 23:27 5,3 C 91 % 1020,6 hPa 0,0 l/m 6,1 km/h (2 Bft) W-NW 292 4,0 C 4,0 C
27.02.2012 23:32 5,3 C 91 % 1020,6 hPa 0,0 l/m 5,8 km/h (2 Bft) W 270 4,0 C 4,1 C
27.02.2012 23:37 5,3 C 91 % 1020,3 hPa 0,0 l/m 4,3 km/h (1 Bft) W-SW 247 4,0 C 5,3 C
27.02.2012 23:42 5,3 C 91 % 1020,3 hPa 0,0 l/m 3,2 km/h (1 Bft) W-SW 247 4,0 C 5,3 C
27.02.2012 23:47 5,3 C 91 % 1020,5 hPa 0,0 l/m 9,4 km/h (2 Bft) W-SW 247 4,0 C 3,1 C
27.02.2012 23:52 5,3 C 91 % 1020,2 hPa 0,0 l/m 2,5 km/h (1 Bft) W-SW 247 4,0 C 5,3 C
27.02.2012 23:57 5,3 C 91 % 1020,5 hPa 0,0 l/m 0,0 km/h (0 Bft) W 270 4,0 C 5,3 C
_ Min-Zeit 06:52 00:02 22:12 - 00:02 - - 06:22 10:12
Minimum _ -1,6 C 67 % 1020,1 hPa - 0,0 km/h (0 Bft) - - -4,8 C -3,0 C
_ Max-Zeit 23:02 18:52 02:12 16:42 21:07 - - 23:02 23:12
Maximum _ 5,3 C 91 % 1027,1 hPa 1,0 l/m 16,6 km/h
W-SW (3 Bft)
- - 4,0 C 5,3 C
Durchschnitt _ 1,8 C 83 % 1024,0 hPa #3,1 l/m 4,0 km/h (1 Bft) W-SW - -0,8 C 1,0 C
(c) by David Heller